createdAt,value
2023-01-12T00:02:21.615Z,29.83
2023-01-12T00:04:49.998Z,30.77
2023-01-12T00:07:18.319Z,27.63
2023-01-12T00:09:46.575Z,25.00
2023-01-12T00:12:16.149Z,30.33
2023-01-12T00:14:44.548Z,31.73
2023-01-12T00:17:16.856Z,28.13
2023-01-12T00:19:45.089Z,28.00
2023-01-12T00:22:16.634Z,23.92
2023-01-12T00:27:17.333Z,31.88
2023-01-12T00:32:15.259Z,30.15
2023-01-12T00:34:43.819Z,38.03
2023-01-12T00:37:14.731Z,36.25
2023-01-12T00:39:48.990Z,39.55
2023-01-12T00:42:43.863Z,27.63
2023-01-12T00:45:24.760Z,36.45
2023-01-12T00:47:54.520Z,33.15
2023-01-12T00:50:22.993Z,38.75
2023-01-12T00:52:51.194Z,37.25
2023-01-12T00:55:19.380Z,25.00
2023-01-12T00:57:49.049Z,35.53
2023-01-12T01:00:18.478Z,40.10
2023-01-12T01:02:46.900Z,32.28
2023-01-12T01:05:15.340Z,41.28
2023-01-12T01:07:43.875Z,26.17
2023-01-12T01:10:12.936Z,36.88
2023-01-12T01:12:41.297Z,30.30
2023-01-12T01:15:12.157Z,40.65
2023-01-12T01:17:40.416Z,45.75
2023-01-12T01:20:09.416Z,35.38
2023-01-12T01:22:39.271Z,45.17
2023-01-12T01:25:08.362Z,45.40
2023-01-12T01:27:36.492Z,40.03
2023-01-12T01:30:05.022Z,41.80
2023-01-12T01:32:34.597Z,30.95
2023-01-12T01:35:02.780Z,56.13
2023-01-12T01:37:31.720Z,32.63
2023-01-12T01:39:59.996Z,28.10
2023-01-12T01:42:30.704Z,24.42
2023-01-12T01:45:08.731Z,30.73
2023-01-12T01:47:43.033Z,40.70
2023-01-12T01:50:17.869Z,34.47
2023-01-12T01:52:49.846Z,40.72
2023-01-12T01:55:23.493Z,36.88
2023-01-12T01:57:56.003Z,35.47
2023-01-12T02:00:25.480Z,27.48
2023-01-12T02:02:55.881Z,40.95
2023-01-12T02:05:26.982Z,38.10
2023-01-12T02:07:55.659Z,37.50
2023-01-12T02:10:23.988Z,40.67
2023-01-12T02:13:09.732Z,29.88
2023-01-12T02:16:06.609Z,37.53
2023-01-12T02:18:47.433Z,36.65
2023-01-12T02:21:56.670Z,30.87
2023-01-12T02:24:51.545Z,27.83
2023-01-12T02:27:46.497Z,39.60
2023-01-12T02:30:48.406Z,30.30
2023-01-12T02:36:15.651Z,32.92
2023-01-12T02:38:51.105Z,29.60
2023-01-12T02:41:45.261Z,33.40
2023-01-12T02:44:27.937Z,29.33
2023-01-12T02:46:59.174Z,31.42
2023-01-12T02:49:31.926Z,31.58
2023-01-12T02:52:05.772Z,26.88
2023-01-12T02:54:36.307Z,34.72
2023-01-12T02:57:08.567Z,26.20
2023-01-12T02:59:40.530Z,25.33
2023-01-12T03:02:10.944Z,29.23
2023-01-12T03:04:39.720Z,24.17
2023-01-12T03:07:28.929Z,36.42
2023-01-12T03:10:01.346Z,27.25
2023-01-12T03:12:35.006Z,25.02
2023-01-12T03:15:07.788Z,25.50
2023-01-12T03:17:41.559Z,24.35
2023-01-12T03:20:17.014Z,33.00
2023-01-12T03:22:49.067Z,24.60
2023-01-12T03:25:19.013Z,19.55
2023-01-12T03:27:50.899Z,25.40
2023-01-12T03:30:22.233Z,18.02
2023-01-12T03:32:51.801Z,19.30
2023-01-12T03:35:25.376Z,34.20
2023-01-12T03:38:00.064Z,23.58
2023-01-12T03:40:33.798Z,25.65
2023-01-12T03:43:07.779Z,21.15
2023-01-12T03:45:40.805Z,27.02
2023-01-12T03:48:15.624Z,26.52
2023-01-12T03:50:49.350Z,19.83
2023-01-12T03:53:22.402Z,19.67
2023-01-12T03:55:55.719Z,21.45
2023-01-12T03:58:25.211Z,24.67
2023-01-12T04:00:53.515Z,13.65
2023-01-12T04:03:21.808Z,22.50
2023-01-12T04:05:50.076Z,24.10
2023-01-12T04:08:19.747Z,23.27
2023-01-12T04:10:48.022Z,18.88
2023-01-12T04:13:15.075Z,29.33
2023-01-12T04:15:43.430Z,24.48
2023-01-12T04:18:13.029Z,20.67
2023-01-12T04:20:41.808Z,23.60
2023-01-12T04:23:09.069Z,25.38
2023-01-12T04:25:38.510Z,29.70
2023-01-12T04:28:07.254Z,24.05
2023-01-12T04:30:35.972Z,22.00
2023-01-12T04:33:09.512Z,26.30
2023-01-12T04:35:38.187Z,26.52
2023-01-12T04:38:09.929Z,27.88
2023-01-12T04:40:39.573Z,27.63
2023-01-12T04:43:08.750Z,23.05
2023-01-12T04:45:39.479Z,27.17
2023-01-12T04:48:09.901Z,27.80
2023-01-12T04:50:38.955Z,26.17
2023-01-12T04:53:08.949Z,21.10
2023-01-12T04:55:41.001Z,21.27
2023-01-12T04:58:09.599Z,28.83
2023-01-12T05:00:37.848Z,27.98
2023-01-12T05:03:06.029Z,28.25
2023-01-12T05:05:35.147Z,22.98
2023-01-12T05:08:22.963Z,22.90
2023-01-12T05:10:52.760Z,23.33
2023-01-12T05:13:21.028Z,20.83
2023-01-12T05:15:49.444Z,38.38
2023-01-12T05:18:17.579Z,27.45
2023-01-12T05:20:46.064Z,23.63
2023-01-12T05:23:14.220Z,28.92
2023-01-12T05:25:42.428Z,21.77
2023-01-12T05:28:12.176Z,19.15
2023-01-12T05:30:40.365Z,16.58
2023-01-12T05:33:08.496Z,24.20
2023-01-12T05:35:39.413Z,18.77
2023-01-12T05:38:07.716Z,22.75
2023-01-12T05:40:35.845Z,11.73
2023-01-12T05:43:21.420Z,22.60
2023-01-12T05:45:51.051Z,20.75
2023-01-12T05:48:19.205Z,22.20
2023-01-12T05:50:47.396Z,20.10
2023-01-12T05:53:15.520Z,20.25
2023-01-12T05:55:43.649Z,21.63
2023-01-12T05:58:11.892Z,16.88
2023-01-12T06:00:40.057Z,20.60
2023-01-12T06:03:09.808Z,16.17
2023-01-12T06:05:38.111Z,15.32
2023-01-12T06:08:06.587Z,17.90
2023-01-12T06:10:37.104Z,14.25
2023-01-12T06:13:22.748Z,20.17
2023-01-12T06:15:51.076Z,19.50
2023-01-12T06:18:22.761Z,28.23
2023-01-12T06:23:18.796Z,20.77
2023-01-12T06:25:46.988Z,28.42
2023-01-12T06:28:16.547Z,19.35
2023-01-12T06:30:44.788Z,19.00
2023-01-12T06:33:14.599Z,22.40
2023-01-12T06:35:49.458Z,20.33
2023-01-12T06:38:19.044Z,13.38
2023-01-12T06:40:47.514Z,10.90
2023-01-12T06:43:15.657Z,19.85
2023-01-12T06:45:44.221Z,23.27
2023-01-12T06:48:12.896Z,16.23
2023-01-12T06:50:41.198Z,11.63
2023-01-12T06:53:11.038Z,12.88
2023-01-12T06:55:39.281Z,13.50
2023-01-12T06:58:07.578Z,9.23
2023-01-12T07:00:35.616Z,11.30
2023-01-12T07:03:03.811Z,14.38
2023-01-12T07:05:31.933Z,10.90
2023-01-12T07:08:01.056Z,14.90
2023-01-12T07:10:32.637Z,15.02
2023-01-12T07:15:32.017Z,13.40
2023-01-12T07:18:00.531Z,11.15
2023-01-12T07:20:29.472Z,13.90
2023-01-12T07:22:57.887Z,8.80
2023-01-12T07:25:26.266Z,9.45
2023-01-12T07:27:57.643Z,9.95
2023-01-12T07:30:26.925Z,13.75
2023-01-12T07:32:55.384Z,10.60
2023-01-12T07:35:25.282Z,14.48
2023-01-12T07:37:55.090Z,9.93
2023-01-12T07:40:23.311Z,11.93
2023-01-12T07:43:01.024Z,13.60
2023-01-12T07:45:30.529Z,12.90
2023-01-12T07:47:59.095Z,7.55
2023-01-12T07:50:29.414Z,4.95
2023-01-12T07:53:02.295Z,6.22
2023-01-12T07:55:31.065Z,8.52
2023-01-12T07:58:03.272Z,6.65
2023-01-12T08:00:32.569Z,5.78
2023-01-12T08:03:06.323Z,8.55
2023-01-12T08:05:35.147Z,9.18
2023-01-12T08:08:03.756Z,4.85
2023-01-12T08:10:31.926Z,6.75
2023-01-12T08:13:01.631Z,7.20
2023-01-12T08:15:36.854Z,9.10
2023-01-12T08:18:09.708Z,21.83
2023-01-12T08:20:38.375Z,7.72
2023-01-12T08:23:12.202Z,12.20
2023-01-12T08:25:45.028Z,26.35
2023-01-12T08:28:18.837Z,10.75
2023-01-12T08:30:48.859Z,12.82
2023-01-12T08:33:17.957Z,18.50
2023-01-12T08:35:47.441Z,20.33
2023-01-12T08:38:15.756Z,19.58
2023-01-12T08:41:01.411Z,22.77
2023-01-12T08:43:48.491Z,20.35
2023-01-12T08:46:16.890Z,20.30
2023-01-12T08:48:45.315Z,28.13
2023-01-12T08:51:13.682Z,25.58
2023-01-12T08:53:41.868Z,28.48
2023-01-12T08:56:10.349Z,33.90
2023-01-12T08:58:40.019Z,33.47
2023-01-12T09:01:09.956Z,29.08
2023-01-12T09:03:38.556Z,30.45
2023-01-12T09:06:14.619Z,30.23
2023-01-12T09:08:42.801Z,31.23
2023-01-12T09:11:12.188Z,23.15
2023-01-12T09:13:41.829Z,34.45
2023-01-12T09:16:13.364Z,28.27
2023-01-12T09:18:42.041Z,31.98
2023-01-12T09:21:13.255Z,35.67
2023-01-12T09:23:41.416Z,31.40
2023-01-12T09:26:11.471Z,40.10
2023-01-12T09:28:41.410Z,22.60
2023-01-12T09:31:11.933Z,28.30
2023-01-12T09:33:41.501Z,30.10
2023-01-12T09:36:11.837Z,15.32
2023-01-12T09:38:41.707Z,29.45
2023-01-12T09:41:17.693Z,29.67
2023-01-12T09:44:05.476Z,24.02
2023-01-12T09:46:55.690Z,33.25
2023-01-12T09:49:28.422Z,26.67
2023-01-12T09:52:06.828Z,39.50
2023-01-12T09:54:36.177Z,24.02
2023-01-12T09:57:28.343Z,32.90
2023-01-12T10:00:05.699Z,39.00
2023-01-12T10:02:36.033Z,36.80
2023-01-12T10:05:14.661Z,39.13
2023-01-12T10:07:42.872Z,44.83
2023-01-12T10:10:15.546Z,39.90
2023-01-12T10:12:49.952Z,32.95
2023-01-12T10:15:32.475Z,34.80
2023-01-12T10:18:05.289Z,36.20
2023-01-12T10:20:38.429Z,42.22
2023-01-12T10:23:16.868Z,36.20
2023-01-12T10:25:47.715Z,47.78
2023-01-12T10:28:24.734Z,42.70
2023-01-12T10:30:56.568Z,38.33
2023-01-12T10:33:26.500Z,42.13
2023-01-12T10:36:00.370Z,42.63
2023-01-12T10:38:33.990Z,50.40
2023-01-12T10:41:12.440Z,41.70
2023-01-12T10:43:42.267Z,46.00
2023-01-12T10:46:14.463Z,36.28
2023-01-12T10:48:44.505Z,43.25
2023-01-12T10:51:27.895Z,52.25
2023-01-12T10:54:00.316Z,40.00
2023-01-12T10:56:32.538Z,34.30
2023-01-12T10:59:03.186Z,44.00
2023-01-12T11:01:47.082Z,48.47
2023-01-12T11:04:17.662Z,40.03
2023-01-12T11:06:46.973Z,40.63
2023-01-12T11:09:25.777Z,41.08
2023-01-12T11:11:56.262Z,54.47
2023-01-12T11:14:30.986Z,44.50
2023-01-12T11:17:18.283Z,38.45
2023-01-12T11:19:48.835Z,48.38
2023-01-12T11:22:24.020Z,32.83
2023-01-12T11:24:57.325Z,42.05
2023-01-12T11:27:30.887Z,38.38
2023-01-12T11:30:02.288Z,50.00
2023-01-12T11:35:09.779Z,52.47
2023-01-12T11:37:42.801Z,43.45
2023-01-12T11:40:23.852Z,31.92
2023-01-12T11:43:11.309Z,40.95
2023-01-12T11:45:44.567Z,39.55
2023-01-12T11:48:32.206Z,25.27
2023-01-12T11:51:01.720Z,30.67
2023-01-12T11:53:29.910Z,38.25
2023-01-12T11:56:11.253Z,31.17
2023-01-12T11:58:48.506Z,43.15
2023-01-12T12:01:23.078Z,37.17
2023-01-12T12:04:09.885Z,32.70
2023-01-12T12:06:59.760Z,32.63
2023-01-12T12:10:05.740Z,26.02
2023-01-12T12:12:45.497Z,21.73
2023-01-12T12:15:29.291Z,23.13
2023-01-12T12:18:09.904Z,23.65
2023-01-12T12:20:49.529Z,18.35
2023-01-12T12:23:28.057Z,30.20
2023-01-12T12:26:09.928Z,27.95
2023-01-12T12:29:07.056Z,33.88
2023-01-12T12:31:52.500Z,25.80
2023-01-12T12:34:36.243Z,23.23
2023-01-12T12:37:15.833Z,24.50
2023-01-12T12:39:50.339Z,23.95
2023-01-12T12:42:59.001Z,20.08
2023-01-12T12:45:36.256Z,22.55
2023-01-12T12:48:12.546Z,22.13
2023-01-12T12:50:48.284Z,26.00
2023-01-12T12:53:25.553Z,27.90
2023-01-12T12:55:55.899Z,28.58
2023-01-12T12:58:48.271Z,30.73
2023-01-12T13:01:55.321Z,23.65
2023-01-12T13:04:57.869Z,24.48
2023-01-12T13:07:27.704Z,14.38
2023-01-12T13:10:27.726Z,18.00
2023-01-12T13:13:02.495Z,24.17
2023-01-12T13:15:37.024Z,17.95
2023-01-12T13:18:07.361Z,13.05
2023-01-12T13:21:02.362Z,22.63
2023-01-12T13:24:17.739Z,17.65
2023-01-12T13:26:52.361Z,19.05
2023-01-12T13:29:51.150Z,21.10
2023-01-12T13:32:44.022Z,12.63
2023-01-12T13:35:28.299Z,26.15
2023-01-12T13:38:04.175Z,18.65
2023-01-12T13:40:33.714Z,20.65
2023-01-12T13:43:17.208Z,19.45
2023-01-12T13:45:48.434Z,37.97
2023-01-12T13:48:19.069Z,26.15
2023-01-12T13:50:50.143Z,30.83
2023-01-12T13:53:24.834Z,23.45
2023-01-12T13:55:58.570Z,32.45
2023-01-12T13:58:29.293Z,29.48
2023-01-12T14:01:00.229Z,26.05
2023-01-12T14:03:53.338Z,24.88
2023-01-12T14:06:31.860Z,26.92
2023-01-12T14:09:09.924Z,43.22
2023-01-12T14:11:56.318Z,28.42
2023-01-12T14:15:03.483Z,30.75
2023-01-12T14:17:50.404Z,30.15
2023-01-12T14:20:20.716Z,26.40
2023-01-12T14:22:49.110Z,22.73
2023-01-12T14:25:20.538Z,30.42
2023-01-12T14:27:53.477Z,30.70
2023-01-12T14:30:24.652Z,32.72
2023-01-12T14:32:53.990Z,22.95
2023-01-12T14:35:24.112Z,25.10
2023-01-12T14:37:55.933Z,30.45
2023-01-12T14:40:27.173Z,31.80
2023-01-12T14:43:13.270Z,25.77
2023-01-12T14:46:13.383Z,25.02
2023-01-12T14:48:43.927Z,30.05
2023-01-12T14:51:26.543Z,29.65
2023-01-12T14:54:00.642Z,25.23
2023-01-12T14:56:32.619Z,22.45
2023-01-12T14:59:09.860Z,24.20
2023-01-12T15:01:40.185Z,20.17
2023-01-12T15:04:15.488Z,31.92
2023-01-12T15:06:45.685Z,18.65
2023-01-12T15:09:29.409Z,25.55
2023-01-12T15:11:58.013Z,30.60
2023-01-12T15:14:29.279Z,31.60
2023-01-12T15:17:16.138Z,21.70
2023-01-12T15:20:01.457Z,24.70
2023-01-12T15:22:47.576Z,16.35
2023-01-12T15:25:35.573Z,26.48
2023-01-12T15:28:05.317Z,23.42
2023-01-12T15:30:37.905Z,23.42
2023-01-12T15:33:08.080Z,31.00
2023-01-12T15:35:46.516Z,29.42
2023-01-12T15:38:16.828Z,19.27
2023-01-12T15:40:47.878Z,19.83
2023-01-12T15:43:18.721Z,20.67
2023-01-12T15:45:48.666Z,23.77
2023-01-12T15:48:18.607Z,25.23
2023-01-12T15:50:48.764Z,25.88
2023-01-12T15:53:19.629Z,38.78
2023-01-12T15:55:48.751Z,21.55
2023-01-12T15:58:17.640Z,27.25
2023-01-12T16:00:46.144Z,24.50
2023-01-12T16:03:34.619Z,20.65
2023-01-12T16:06:04.614Z,28.33
2023-01-12T16:08:32.718Z,24.27
2023-01-12T16:11:13.721Z,17.63
2023-01-12T16:13:42.392Z,30.10
2023-01-12T16:16:16.250Z,27.33
2023-01-12T16:18:44.728Z,14.55
2023-01-12T16:21:17.956Z,21.48
2023-01-12T16:23:47.022Z,20.50
2023-01-12T16:26:15.391Z,28.45
2023-01-12T16:28:47.433Z,19.48
2023-01-12T16:31:16.385Z,29.55
2023-01-12T16:33:45.490Z,32.22
2023-01-12T16:36:16.113Z,21.95
2023-01-12T16:38:44.378Z,23.80
2023-01-12T16:41:14.505Z,24.73
2023-01-12T16:43:42.882Z,20.05
2023-01-12T16:46:12.685Z,20.48
2023-01-12T16:48:42.274Z,17.98
2023-01-12T16:51:14.346Z,22.35
2023-01-12T16:53:45.090Z,31.48
2023-01-12T16:56:15.640Z,29.63
2023-01-12T16:58:48.438Z,21.83
2023-01-12T17:01:19.352Z,31.05
2023-01-12T17:03:47.708Z,26.45
2023-01-12T17:06:19.070Z,17.30
2023-01-12T17:08:49.709Z,20.33
2023-01-12T17:11:20.412Z,14.20
2023-01-12T17:13:52.489Z,17.88
2023-01-12T17:16:21.754Z,14.93
2023-01-12T17:18:51.013Z,8.02
2023-01-12T17:21:20.014Z,17.48
2023-01-12T17:23:49.723Z,11.35
2023-01-12T17:26:19.557Z,8.23
2023-01-12T17:28:48.209Z,11.57
2023-01-12T17:31:20.715Z,8.32
2023-01-12T17:36:19.061Z,15.98
2023-01-12T17:38:47.278Z,19.02
2023-01-12T17:41:31.647Z,20.08
2023-01-12T17:44:01.472Z,12.40
2023-01-12T17:46:30.176Z,16.67
2023-01-12T17:48:59.976Z,18.70
2023-01-12T17:51:28.556Z,17.58
2023-01-12T17:53:57.517Z,15.40
2023-01-12T17:56:28.445Z,13.73
2023-01-12T17:58:57.155Z,13.85
2023-01-12T18:01:27.313Z,20.85
2023-01-12T18:03:55.548Z,14.90
2023-01-12T18:06:27.251Z,19.85
2023-01-12T18:08:57.528Z,16.70
2023-01-12T18:11:28.396Z,20.05
2023-01-12T18:13:57.144Z,18.77
2023-01-12T18:16:26.587Z,13.27
2023-01-12T18:18:54.938Z,14.32
2023-01-12T18:21:24.693Z,15.10
2023-01-12T18:23:53.619Z,21.33
2023-01-12T18:26:25.273Z,15.90
2023-01-12T18:28:55.188Z,22.35
2023-01-12T18:31:25.995Z,18.33
2023-01-12T18:33:57.918Z,16.05
2023-01-12T18:36:27.330Z,17.58
2023-01-12T18:38:56.126Z,19.17
2023-01-12T18:41:42.404Z,9.93
2023-01-12T18:44:12.206Z,9.07
2023-01-12T18:47:01.105Z,13.77
2023-01-12T18:49:31.214Z,13.60
2023-01-12T18:52:17.573Z,14.93
2023-01-12T18:54:47.943Z,16.90
2023-01-12T18:57:17.664Z,20.30
2023-01-12T18:59:50.299Z,16.25
2023-01-12T19:02:19.617Z,22.45
2023-01-12T19:05:06.318Z,17.52
2023-01-12T19:07:50.060Z,26.00
2023-01-12T19:10:18.720Z,23.27
2023-01-12T19:12:46.986Z,17.13
2023-01-12T19:15:34.445Z,23.40
2023-01-12T19:18:02.602Z,19.83
2023-01-12T19:20:31.689Z,23.35
2023-01-12T19:23:22.360Z,21.13
2023-01-12T19:26:07.885Z,20.35
2023-01-12T19:28:48.198Z,26.98
2023-01-12T19:31:17.932Z,27.75
2023-01-12T19:33:46.078Z,18.80
2023-01-12T19:36:16.100Z,21.15
2023-01-12T19:38:50.529Z,34.50
2023-01-12T19:41:32.930Z,18.65
2023-01-12T19:44:05.394Z,31.88
2023-01-12T19:46:34.950Z,23.63
2023-01-12T19:49:04.685Z,26.60
2023-01-12T19:51:32.891Z,28.35
2023-01-12T19:54:01.029Z,29.98
2023-01-12T19:56:29.291Z,19.52
2023-01-12T19:58:58.298Z,22.17
2023-01-12T20:01:28.554Z,19.55
2023-01-12T20:03:58.596Z,26.27
2023-01-12T20:06:26.690Z,28.95
2023-01-12T20:08:54.983Z,25.45
2023-01-12T20:11:23.222Z,29.52
2023-01-12T20:13:51.286Z,29.73
2023-01-12T20:16:19.487Z,24.27
2023-01-12T20:18:48.780Z,32.83
2023-01-12T20:21:18.408Z,21.15
2023-01-12T20:23:46.517Z,25.23
2023-01-12T20:26:15.710Z,20.85
2023-01-12T20:28:44.120Z,22.98
2023-01-12T20:31:13.348Z,30.00
2023-01-12T20:33:41.919Z,25.55
2023-01-12T20:36:12.323Z,21.98
2023-01-12T20:38:42.450Z,27.60
2023-01-12T20:41:11.407Z,24.65
2023-01-12T20:43:39.894Z,26.33
2023-01-12T20:46:09.620Z,21.38
2023-01-12T20:48:38.283Z,22.42
2023-01-12T20:51:08.545Z,27.15
2023-01-12T20:53:36.800Z,31.67
2023-01-12T20:56:07.535Z,33.83
2023-01-12T20:58:35.777Z,16.33
2023-01-12T21:01:09.022Z,30.88
2023-01-12T21:03:37.455Z,28.77
2023-01-12T21:06:09.997Z,26.15
2023-01-12T21:08:39.560Z,24.88
2023-01-12T21:11:09.275Z,30.40
2023-01-12T21:13:37.683Z,30.38
2023-01-12T21:16:08.184Z,31.33
2023-01-12T21:18:36.875Z,34.30
2023-01-12T21:21:05.806Z,28.17
2023-01-12T21:23:34.090Z,27.13
2023-01-12T21:26:06.512Z,37.17
2023-01-12T21:28:37.641Z,29.08
2023-01-12T21:31:07.091Z,21.17
2023-01-12T21:33:35.807Z,39.60
2023-01-12T21:36:04.328Z,26.45
2023-01-12T21:38:32.785Z,18.73
2023-01-12T21:41:03.534Z,31.00
2023-01-12T21:43:32.408Z,24.05
2023-01-12T21:46:07.824Z,22.92
2023-01-12T21:48:36.763Z,25.98
2023-01-12T21:51:05.978Z,28.73
2023-01-12T21:53:34.357Z,30.40
2023-01-12T21:56:05.059Z,24.15
2023-01-12T21:58:36.001Z,34.55
2023-01-12T22:01:11.128Z,26.55
2023-01-12T22:03:43.112Z,27.95
2023-01-12T22:06:13.171Z,29.42
2023-01-12T22:08:42.605Z,31.27
2023-01-12T22:11:13.127Z,28.88
2023-01-12T22:13:41.771Z,29.50
2023-01-12T22:16:14.708Z,36.63
2023-01-12T22:18:46.339Z,30.23
2023-01-12T22:23:43.370Z,15.20
2023-01-12T22:26:13.598Z,22.83
2023-01-12T22:28:43.735Z,27.85
2023-01-12T22:31:15.068Z,39.50
2023-01-12T22:33:46.084Z,26.70
2023-01-12T22:36:15.072Z,29.98
2023-01-12T22:38:44.949Z,28.70
2023-01-12T22:41:13.856Z,29.02
2023-01-12T22:43:42.021Z,27.50
2023-01-12T22:46:15.662Z,31.45
2023-01-12T22:48:44.054Z,28.35
2023-01-12T22:51:12.301Z,26.60
2023-01-12T22:53:40.461Z,23.92
2023-01-12T22:56:09.328Z,31.08
2023-01-12T22:58:37.453Z,27.02
2023-01-12T23:01:06.490Z,30.80
2023-01-12T23:03:36.889Z,27.75
2023-01-12T23:06:05.747Z,31.75
2023-01-12T23:08:34.039Z,28.65
2023-01-12T23:11:07.018Z,33.55
2023-01-12T23:13:35.543Z,34.47
2023-01-12T23:16:06.804Z,28.33
2023-01-12T23:18:38.324Z,33.83
2023-01-12T23:23:39.923Z,27.23
2023-01-12T23:26:10.657Z,36.13
2023-01-12T23:28:41.569Z,22.15
2023-01-12T23:31:12.299Z,25.58
2023-01-12T23:33:43.747Z,21.60
2023-01-12T23:36:14.133Z,30.38
2023-01-12T23:38:43.079Z,30.38
2023-01-12T23:41:12.831Z,23.98
2023-01-12T23:43:41.168Z,30.65
2023-01-12T23:46:09.472Z,22.65
2023-01-12T23:48:37.973Z,21.67
2023-01-12T23:51:07.947Z,20.50
2023-01-12T23:53:36.495Z,12.10
2023-01-12T23:56:06.399Z,20.17
2023-01-12T23:58:34.894Z,21.60
